Time;durP1;ratioP1;P1;durP2;ratioP2;P2;SDS_P1;SDS_P2;PMS_P1;PMS_P2;Temp;Humidity;BMP_temperature;BMP_pressure;BME280_temperature;BME280_humidity;BME280_pressure;Samples;Min_cycle;Max_cycle;Signal;HPM_P1;HPM_P2
2024/04/09 00:01:38;;;;;;;;;;;;;;;5.85;100.00;98404.25;5281199;26;19985;-82
2024/04/09 00:04:04;;;;;;;;;;;;;;;5.81;100.00;98409.63;5339386;26;19938;-82
2024/04/09 00:06:30;;;;;;;;;;;;;;;5.86;100.00;98414.69;5338964;26;19949;-82
2024/04/09 00:08:55;;;;;;;;;;;;;;;5.85;100.00;98418.22;5338787;26;19930;-82
2024/04/09 00:11:21;;;;;;;;;;;;;;;5.92;100.00;98429.31;5340025;26;20372;-82
2024/04/09 00:13:47;;;;;;;;;;;;;;;5.92;100.00;98426.69;5338991;26;19930;-82
2024/04/09 00:16:12;;;;;;;;;;;;;;;5.89;100.00;98437.34;5339551;26;20030;-82
2024/04/09 00:18:37;;;;;;;;;;;;;;;5.87;100.00;98447.94;5337856;26;19950;-82
2024/04/09 07:56:34;;;;;;;;;;;;;;;5.51;100.00;99391.16;5703944;21;19926;-85
2024/04/09 07:59:00;;;;;;;;;;;;;;;5.43;100.00;99372.97;5329636;26;19931;-83
2024/04/09 08:01:25;;;;;;;;;;;;;;;5.37;100.00;99381.88;5297327;26;20302;-84
2024/04/09 08:03:51;;;;;;;;;;;;;;;5.36;100.00;99387.16;5293453;26;20099;-83
2024/04/09 08:06:16;;;;;;;;;;;;;;;5.39;100.00;99379.19;5310406;27;20001;-85
2024/04/09 08:08:41;;;;;;;;;;;;;;;5.42;100.00;99377.34;5280599;27;19938;-85
2024/04/09 08:11:09;;;;;;;;;;;;;;;5.38;100.00;99361.72;5308159;26;20149;-84
2024/04/09 08:13:34;;;;;;;;;;;;;;;5.36;100.00;99369.66;5310126;26;19939;-82
2024/04/09 08:15:59;;;;;;;;;;;;;;;5.43;100.00;99399.25;5309372;27;20586;-85
2024/04/09 08:18:25;;;;;;;;;;;;;;;5.50;100.00;99399.94;5310218;27;19974;-84
2024/04/09 08:20:51;;;;;;;;;;;;;;;5.53;100.00;99402.47;5310388;27;19930;-84
2024/04/09 08:23:16;;;;;;;;;;;;;;;5.51;100.00;99409.56;5310431;27;19931;-81
2024/04/09 08:25:42;;;;;;;;;;;;;;;5.54;100.00;99398.94;5308464;26;19931;-82
2024/04/09 08:28:07;;;;;;;;;;;;;;;5.46;100.00;99407.03;5309991;26;19931;-80
2024/04/09 08:30:33;;;;;;;;;;;;;;;5.48;100.00;99415.75;5309852;27;19931;-81
2024/04/09 08:32:58;;;;;;;;;;;;;;;5.55;100.00;99426.94;5280329;27;19931;-86
2024/04/09 08:35:23;;;;;;;;;;;;;;;5.57;100.00;99444.41;5310251;27;20362;-84
2024/04/09 08:37:49;;;;;;;;;;;;;;;5.51;100.00;99439.31;5280124;27;19930;-87
2024/04/09 08:40:18;;;;;;;;;;;;;;;5.45;100.00;99427.19;5308945;27;19931;-85
2024/04/09 08:42:45;;;;;;;;;;;;;;;5.38;100.00;99425.66;5310360;27;19937;-81
2024/04/09 08:45:14;;;;;;;;;;;;;;;5.42;100.00;99418.53;5310437;27;20376;-87
2024/04/09 08:47:41;;;;;;;;;;;;;;;5.42;100.00;99418.53;5278784;27;19938;-80
2024/04/09 08:50:07;;;;;;;;;;;;;;;5.43;100.00;99417.63;5309105;27;20377;-82
2024/04/09 08:52:33;;;;;;;;;;;;;;;5.38;100.00;99419.53;5279840;27;19931;-80
2024/04/09 08:54:58;;;;;;;;;;;;;;;5.37;100.00;99415.19;5278580;27;19930;-83
2024/04/09 08:57:24;;;;;;;;;;;;;;;5.34;100.00;99420.50;5279592;27;20304;-87
2024/04/09 08:59:50;;;;;;;;;;;;;;;5.37;100.00;99428.31;5279239;27;20372;-91
2024/04/09 09:02:15;;;;;;;;;;;;;;;5.31;100.00;99436.34;5279465;27;19935;-88
2024/04/09 09:04:41;;;;;;;;;;;;;;;5.33;100.00;99464.31;5265535;27;20008;-85
2024/04/09 09:07:17;;;;;;;;;;;;;;;5.43;100.00;99481.56;5308559;27;19938;-85
2024/04/09 09:09:42;;;;;;;;;;;;;;;5.37;100.00;99486.13;5309265;27;20001;-86
2024/04/09 09:12:08;;;;;;;;;;;;;;;5.39;100.00;99481.69;5308007;27;19959;-87
2024/04/09 09:14:33;;;;;;;;;;;;;;;5.43;100.00;99483.34;5281254;27;20378;-83
2024/04/09 09:17:00;;;;;;;;;;;;;;;5.40;100.00;99484.25;5313282;26;20230;-85
2024/04/09 09:19:30;;;;;;;;;;;;;;;5.41;100.00;99499.13;5312742;27;19931;-85
2024/04/09 09:21:55;;;;;;;;;;;;;;;5.38;100.00;99503.63;5312275;26;19931;-86
2024/04/09 09:24:21;;;;;;;;;;;;;;;5.39;100.00;99506.22;5312632;27;19945;-85
2024/04/09 09:26:46;;;;;;;;;;;;;;;5.40;100.00;99517.56;5311401;27;20001;-83
2024/04/09 09:29:12;;;;;;;;;;;;;;;5.39;100.00;99506.22;5312348;26;20009;-86
2024/04/09 09:31:39;;;;;;;;;;;;;;;5.36;100.00;99508.03;5309956;27;20001;-87
2024/04/09 09:34:07;;;;;;;;;;;;;;;5.37;100.00;99517.66;5312927;27;19934;-83
2024/04/09 09:36:33;;;;;;;;;;;;;;;5.28;100.00;99514.38;5276738;27;20375;-87
2024/04/09 09:38:59;;;;;;;;;;;;;;;5.35;100.00;99517.69;5281886;27;19938;-90
2024/04/09 09:41:24;;;;;;;;;;;;;;;5.33;100.00;99526.50;5310688;26;21676;-83
2024/04/09 09:43:50;;;;;;;;;;;;;;;5.44;100.00;99534.97;5310567;26;19930;-81
2024/04/09 09:46:16;;;;;;;;;;;;;;;5.35;100.00;99536.06;5311636;27;19996;-86
2024/04/09 09:48:42;;;;;;;;;;;;;;;5.38;100.00;99524.63;5280792;27;19931;-81
2024/04/09 09:51:08;;;;;;;;;;;;;;;5.40;100.00;99509.69;5312331;27;19937;-84
2024/04/09 09:53:33;;;;;;;;;;;;;;;5.32;100.00;99515.13;5311822;27;19934;-80
2024/04/09 09:56:00;;;;;;;;;;;;;;;5.39;100.00;99523.72;5311241;27;19934;-84
2024/04/09 09:58:30;;;;;;;;;;;;;;;5.41;100.00;99519.31;5312647;27;20365;-84
2024/04/09 10:00:56;;;;;;;;;;;;;;;5.40;100.00;99522.81;5311991;26;19934;-87
2024/04/09 10:03:22;;;;;;;;;;;;;;;5.33;100.00;99516.00;5310181;26;19938;-84
2024/04/09 10:05:48;;;;;;;;;;;;;;;10.35;100.00;99503.38;5310392;27;19931;-83
2024/04/09 10:08:26;;;;;;;;;;;;;;;6.90;100.00;99524.69;5312132;27;19941;-85
2024/04/09 10:10:52;;;;;;;;;;;;;;;6.04;100.00;99522.88;5279036;27;19937;-88
2024/04/09 10:13:18;;;;;;;;;;;;;;;5.82;100.00;99518.19;5312575;27;19942;-90
2024/04/09 10:15:45;;;;;;;;;;;;;;;5.70;100.00;99512.41;5311629;27;20678;-92
2024/04/09 10:18:11;;;;;;;;;;;;;;;5.63;100.00;99520.47;5281593;27;20354;-88
2024/04/09 10:20:36;;;;;;;;;;;;;;;5.63;100.00;99514.31;5282076;27;19962;-84
2024/04/09 10:23:05;;;;;;;;;;;;;;;5.60;100.00;99523.16;5280689;27;19937;-88
2024/04/09 10:25:35;;;;;;;;;;;;;;;5.55;100.00;99517.19;5280278;27;19930;-80
2024/04/09 10:28:02;;;;;;;;;;;;;;;5.48;100.00;99510.34;5281394;27;19930;-84
2024/04/09 10:30:28;;;;;;;;;;;;;;;5.50;100.00;99507.69;5310198;27;19930;-79
2024/04/09 10:32:57;;;;;;;;;;;;;;;5.52;100.00;99511.13;5312041;27;19941;-82
2024/04/09 10:35:22;;;;;;;;;;;;;;;5.46;100.00;99513.00;5281314;27;19931;-82
2024/04/09 10:37:48;;;;;;;;;;;;;;;5.57;100.00;99515.38;5312061;27;20366;-80
2024/04/09 10:40:14;;;;;;;;;;;;;;;5.53;100.00;99524.22;5310718;27;20618;-82
2024/04/09 10:42:39;;;;;;;;;;;;;;;5.52;100.00;99540.91;5281048;27;19931;-81
2024/04/09 10:45:04;;;;;;;;;;;;;;;5.51;100.00;99536.53;5280003;27;19930;-81
2024/04/09 10:47:31;;;;;;;;;;;;;;;5.61;100.00;99535.38;5311881;27;19938;-86
2024/04/09 10:49:56;;;;;;;;;;;;;;;5.55;100.00;99542.56;5299726;27;19942;-82
2024/04/09 10:52:22;;;;;;;;;;;;;;;5.68;100.00;99537.84;5311583;27;19947;-79
2024/04/09 10:54:47;;;;;;;;;;;;;;;5.66;100.00;99531.78;5312032;27;20276;-82
2024/04/09 10:57:12;;;;;;;;;;;;;;;5.58;100.00;99524.94;5310090;27;19950;-85
2024/04/09 10:59:37;;;;;;;;;;;;;;;5.50;100.00;99540.06;5280674;27;19934;-87
2024/04/09 11:02:06;;;;;;;;;;;;;;;5.46;100.00;99538.44;5311713;26;19930;-87
2024/04/09 11:04:33;;;;;;;;;;;;;;;5.43;100.00;99539.38;5281321;27;20274;-80
2024/04/09 11:07:00;;;;;;;;;;;;;;;5.42;100.00;99536.78;5311179;26;19939;-84
2024/04/09 11:09:25;;;;;;;;;;;;;;;5.45;100.00;99531.44;5311046;26;19931;-81
2024/04/09 11:11:51;;;;;;;;;;;;;;;5.58;100.00;99540.72;5279925;27;19931;-85
2024/04/09 11:14:16;;;;;;;;;;;;;;;5.59;100.00;99545.09;5311678;27;19946;-79
2024/04/09 11:16:45;;;;;;;;;;;;;;;5.50;100.00;99544.47;5311263;27;19955;-82
2024/04/09 11:19:10;;;;;;;;;;;;;;;5.55;100.00;99550.47;5309914;27;19931;-80
2024/04/09 11:21:35;;;;;;;;;;;;;;;5.61;100.00;99543.28;5310233;27;21548;-81
2024/04/09 11:24:01;;;;;;;;;;;;;;;5.51;100.00;99533.91;5311667;27;20366;-81
2024/04/09 11:26:26;;;;;;;;;;;;;;;5.51;100.00;99530.44;5309856;27;19941;-80
2024/04/09 11:28:52;;;;;;;;;;;;;;;5.45;100.00;99516.53;5311072;26;19930;-79
2024/04/09 11:31:21;;;;;;;;;;;;;;;5.50;100.00;99519.03;5279210;27;20008;-80
2024/04/09 11:33:47;;;;;;;;;;;;;;;5.51;100.00;99548.84;5309936;27;19937;-82
2024/04/09 11:36:14;;;;;;;;;;;;;;;5.44;100.00;99550.72;5309702;27;19930;-82
2024/04/09 11:38:39;;;;;;;;;;;;;;;5.49;100.00;99550.63;5309936;27;19939;-83
2024/04/09 11:41:04;;;;;;;;;;;;;;;5.48;100.00;99562.91;5308362;26;19981;-81
2024/04/09 11:43:33;;;;;;;;;;;;;;;5.51;100.00;99568.09;5311270;27;19931;-85
2024/04/09 11:45:59;;;;;;;;;;;;;;;5.54;100.00;99565.38;5280439;27;19930;-80
2024/04/09 11:48:24;;;;;;;;;;;;;;;5.46;100.00;99562.09;5310360;27;19937;-85
2024/04/09 11:50:49;;;;;;;;;;;;;;;5.49;100.00;99555.88;5279044;27;19942;-83
2024/04/09 11:53:15;;;;;;;;;;;;;;;5.54;100.00;99546.97;5310873;27;19937;-84
2024/04/09 11:55:40;;;;;;;;;;;;;;;5.59;100.00;99560.00;5308210;27;19931;-85
2024/04/09 11:58:05;;;;;;;;;;;;;;;5.55;100.00;99564.50;5279629;27;19937;-84
2024/04/09 12:00:30;;;;;;;;;;;;;;;5.52;100.00;99561.06;5280799;27;19942;-82
2024/04/09 12:02:56;;;;;;;;;;;;;;;5.52;100.00;99567.19;5280312;27;19938;-82
2024/04/09 12:05:21;;;;;;;;;;;;;;;5.57;100.00;99554.78;5280521;27;19939;-83
2024/04/09 12:07:47;;;;;;;;;;;;;;;5.51;100.00;99575.97;5280511;27;19942;-80
2024/04/09 12:10:12;;;;;;;;;;;;;;;5.55;100.00;99595.16;5278682;27;19941;-84
2024/04/09 12:12:40;;;;;;;;;;;;;;;5.45;100.00;99607.66;5277925;27;20352;-85
2024/04/09 12:15:06;;;;;;;;;;;;;;;5.53;100.00;99618.84;5278879;26;19942;-83
2024/04/09 12:17:31;;;;;;;;;;;;;;;5.55;100.00;99613.53;5309710;27;19939;-85
2024/04/09 12:19:56;;;;;;;;;;;;;;;5.51;100.00;99593.50;5280055;27;20350;-86
2024/04/09 12:22:22;;;;;;;;;;;;;;;5.44;100.00;99593.66;5308979;27;19930;-89
2024/04/09 12:24:47;;;;;;;;;;;;;;;5.45;100.00;99586.63;5279489;27;19938;-86
2024/04/09 12:27:12;;;;;;;;;;;;;;;5.42;100.00;99595.44;5278286;27;20039;-86
2024/04/09 12:29:38;;;;;;;;;;;;;;;5.47;100.00;99582.19;5279915;27;19958;-86
2024/04/09 12:32:04;;;;;;;;;;;;;;;5.50;100.00;99587.38;5310477;26;19934;-87
2024/04/09 12:34:29;;;;;;;;;;;;;;;5.55;100.00;99590.78;5310268;27;19931;-86
2024/04/09 12:36:55;;;;;;;;;;;;;;;5.50;100.00;99597.03;5309478;27;19930;-86
2024/04/09 12:39:20;;;;;;;;;;;;;;;5.45;100.00;99599.78;5310486;27;19931;-84
2024/04/09 12:41:46;;;;;;;;;;;;;;;5.51;100.00;99610.13;5308723;27;19930;-86
2024/04/09 12:44:11;;;;;;;;;;;;;;;5.49;100.00;99595.28;5279646;27;20313;-84
2024/04/09 12:46:37;;;;;;;;;;;;;;;5.44;100.00;99582.25;5312872;26;19931;-86
2024/04/09 12:49:02;;;;;;;;;;;;;;;5.48;100.00;99598.84;5283108;27;19938;-91
2024/04/09 12:51:28;;;;;;;;;;;;;;;5.42;100.00;99591.97;5305464;27;20374;-86
2024/04/09 12:53:53;;;;;;;;;;;;;;;5.40;100.00;99585.88;5313419;27;19942;-90
2024/04/09 12:56:20;;;;;;;;;;;;;;;5.48;100.00;99594.44;5311561;27;19937;-85
2024/04/09 12:58:45;;;;;;;;;;;;;;;5.48;100.00;99594.44;5311455;27;19931;-88
2024/04/09 13:01:10;;;;;;;;;;;;;;;5.60;100.00;99603.78;5283072;27;19937;-85
2024/04/09 13:03:36;;;;;;;;;;;;;;;5.44;100.00;99582.25;5280297;27;20583;-91
2024/04/09 13:06:01;;;;;;;;;;;;;;;5.48;100.00;99589.19;5282533;26;20361;-89
2024/04/09 13:08:27;;;;;;;;;;;;;;;5.53;100.00;99607.47;5283095;27;20250;-83
2024/04/09 13:10:52;;;;;;;;;;;;;;;5.48;100.00;99606.72;5311076;27;19981;-85
2024/04/09 13:13:17;;;;;;;;;;;;;;;5.54;100.00;99615.31;5283098;27;19942;-85
2024/04/09 13:15:43;;;;;;;;;;;;;;;5.51;100.00;99609.28;5312482;27;20341;-86
2024/04/09 13:18:08;;;;;;;;;;;;;;;5.39;100.00;99605.16;5313324;27;19963;-84
2024/04/09 13:20:33;;;;;;;;;;;;;;;5.35;100.00;99599.13;5313073;27;19930;-88
2024/04/09 13:22:58;;;;;;;;;;;;;;;5.37;100.00;99601.72;5283038;27;19931;-86
2024/04/09 13:25:24;;;;;;;;;;;;;;;5.35;100.00;99604.41;5267751;27;19938;-78
2024/04/09 13:27:49;;;;;;;;;;;;;;;5.39;100.00;99595.56;5312836;27;19938;-85
2024/04/09 13:30:14;;;;;;;;;;;;;;;5.39;100.00;99597.28;5281922;27;19933;-86
2024/04/09 13:32:39;;;;;;;;;;;;;;;5.31;100.00;99596.63;5312348;26;19931;-86
2024/04/09 13:35:05;;;;;;;;;;;;;;;5.35;100.00;99593.03;5311779;27;19931;-84
2024/04/09 13:37:30;;;;;;;;;;;;;;;5.28;100.00;99595.81;5282651;27;20411;-85
2024/04/09 13:39:56;;;;;;;;;;;;;;;5.37;100.00;99593.84;5310962;26;19931;-85
2024/04/09 13:42:21;;;;;;;;;;;;;;;5.39;100.00;99600.81;5268557;27;19931;-87
2024/04/09 13:44:46;;;;;;;;;;;;;;;5.48;100.00;99612.84;5282519;27;19978;-84
2024/04/09 13:47:12;;;;;;;;;;;;;;;5.39;100.00;99599.91;5282209;27;19941;-86
2024/04/09 13:49:37;;;;;;;;;;;;;;;5.38;100.00;99606.09;5312615;27;19939;-84
2024/04/09 13:52:03;;;;;;;;;;;;;;;5.46;100.00;99612.03;5280726;27;19941;-84
2024/04/09 13:54:28;;;;;;;;;;;;;;;5.43;100.00;99612.09;5281067;27;19958;-84
2024/04/09 13:56:53;;;;;;;;;;;;;;;5.35;100.00;99596.50;5309609;27;19942;-85
2024/04/09 13:59:18;;;;;;;;;;;;;;;5.42;100.00;99610.34;5312366;27;19931;-84
2024/04/09 14:01:43;;;;;;;;;;;;;;;5.37;100.00;99607.84;5312730;27;19942;-85
2024/04/09 14:04:10;;;;;;;;;;;;;;;5.30;100.00;99615.91;5282592;27;20373;-85
2024/04/09 14:06:35;;;;;;;;;;;;;;;5.31;100.00;99617.63;5311828;26;20337;-87
2024/04/09 14:09:00;;;;;;;;;;;;;;;5.38;100.00;99617.47;5282289;27;19942;-84
2024/04/09 14:11:26;;;;;;;;;;;;;;;5.43;100.00;99628.72;5279400;27;20258;-83
2024/04/09 14:13:51;;;;;;;;;;;;;;;5.33;100.00;99647.34;5312202;27;19930;-83
2024/04/09 14:16:17;;;;;;;;;;;;;;;5.38;100.00;99643.72;5281154;27;19942;-84
2024/04/09 14:18:42;;;;;;;;;;;;;;;5.39;100.00;99632.34;5312366;27;19937;-82
2024/04/09 14:21:08;;;;;;;;;;;;;;;5.40;100.00;99639.31;5312362;27;20277;-81
2024/04/09 14:23:34;;;;;;;;;;;;;;;5.37;100.00;99623.59;5311950;26;19963;-83
2024/04/09 14:26:03;;;;;;;;;;;;;;;5.31;100.00;99629.00;5280987;27;19931;-84
2024/04/09 14:28:29;;;;;;;;;;;;;;;5.34;100.00;99634.19;5311415;27;19937;-81
2024/04/09 14:30:54;;;;;;;;;;;;;;;5.32;100.00;99629.88;5311809;26;19930;-81
2024/04/09 14:33:19;;;;;;;;;;;;;;;5.30;100.00;99626.41;5304318;27;19930;-80
2024/04/09 14:35:44;;;;;;;;;;;;;;;5.36;100.00;99647.28;5311038;27;20273;-82
2024/04/09 14:38:09;;;;;;;;;;;;;;;5.56;100.00;99647.66;5281658;27;19938;-81
2024/04/09 14:40:35;;;;;;;;;;;;;;;5.36;100.00;99640.28;5268756;27;19959;-88
2024/04/09 14:43:01;;;;;;;;;;;;;;;5.29;100.00;99630.81;5311439;26;19942;-86
2024/04/09 14:45:26;;;;;;;;;;;;;;;5.28;100.00;99640.47;5311819;26;19938;-81
2024/04/09 14:47:51;;;;;;;;;;;;;;;5.27;100.00;99636.09;5281920;27;19942;-80
2024/04/09 14:50:16;;;;;;;;;;;;;;;5.24;100.00;99661.59;5311855;27;19935;-81
2024/04/09 14:52:42;;;;;;;;;;;;;;;5.32;100.00;99664.03;5280028;27;19941;-81
2024/04/09 14:55:07;;;;;;;;;;;;;;;5.41;100.00;99658.56;5309766;27;19931;-82
2024/04/09 14:57:32;;;;;;;;;;;;;;;5.44;100.00;99647.97;5269602;27;19932;-84
2024/04/09 14:59:58;;;;;;;;;;;;;;;5.30;100.00;99653.56;5311853;27;19935;-82
2024/04/09 15:02:25;;;;;;;;;;;;;;;5.43;100.00;99662.88;5311755;26;19930;-83
2024/04/09 15:04:50;;;;;;;;;;;;;;;5.38;100.00;99663.91;5280274;27;20365;-80
2024/04/09 15:07:16;;;;;;;;;;;;;;;5.35;100.00;99666.59;5267148;27;19935;-80
2024/04/09 15:09:43;;;;;;;;;;;;;;;5.33;100.00;99666.63;5280406;27;19930;-81
2024/04/09 15:12:08;;;;;;;;;;;;;;;5.30;100.00;99664.06;5309995;27;20021;-81
2024/04/09 15:14:34;;;;;;;;;;;;;;;5.27;100.00;99675.50;5281566;27;20358;-84
2024/04/09 15:16:59;;;;;;;;;;;;;;;5.26;100.00;99684.31;5310208;27;19938;-81
2024/04/09 15:19:25;;;;;;;;;;;;;;;5.29;100.00;99675.47;5311665;27;20008;-87
2024/04/09 15:21:50;;;;;;;;;;;;;;;5.38;100.00;99683.16;5279341;27;19997;-90
2024/04/09 15:24:15;;;;;;;;;;;;;;;5.43;100.00;99696.19;5306898;27;19982;-88
2024/04/09 15:26:41;;;;;;;;;;;;;;;5.35;100.00;99693.72;5308194;27;19943;-86
2024/04/09 15:29:06;;;;;;;;;;;;;;;5.27;100.00;99690.41;5311419;27;19930;-86
2024/04/09 15:31:31;;;;;;;;;;;;;;;5.23;100.00;99694.00;5310793;27;19937;-87
2024/04/09 15:33:57;;;;;;;;;;;;;;;5.21;100.00;99690.56;5311485;27;19937;-87
2024/04/09 15:36:23;;;;;;;;;;;;;;;5.36;100.00;99684.06;5268239;27;19931;-86
2024/04/09 15:38:48;;;;;;;;;;;;;;;5.27;100.00;99691.28;5280655;27;19938;-86
2024/04/09 15:41:13;;;;;;;;;;;;;;;5.37;100.00;99694.56;5308166;27;19935;-87
2024/04/09 15:43:39;;;;;;;;;;;;;;;5.34;100.00;99694.63;5300634;27;19939;-86
2024/04/09 15:46:04;;;;;;;;;;;;;;;5.36;100.00;99694.59;5311101;27;20262;-86
2024/04/09 15:48:30;;;;;;;;;;;;;;;5.32;100.00;99695.56;5280885;27;19937;-84
2024/04/09 15:50:55;;;;;;;;;;;;;;;5.32;100.00;99685.91;5280784;27;19930;-86
2024/04/09 15:53:20;;;;;;;;;;;;;;;5.35;100.00;99685.00;5309799;27;20000;-86
2024/04/09 15:55:45;;;;;;;;;;;;;;;5.28;100.00;99677.25;5309548;27;19930;-85
2024/04/09 15:58:11;;;;;;;;;;;;;;;5.36;100.00;99689.31;5280622;27;19970;-87
2024/04/09 16:00:36;;;;;;;;;;;;;;;5.37;100.00;99688.44;5310846;27;19930;-86
2024/04/09 16:03:02;;;;;;;;;;;;;;;5.30;100.00;99705.22;5280647;27;19941;-87
2024/04/09 16:05:28;;;;;;;;;;;;;;;5.32;100.00;99690.31;5311042;27;19946;-85
2024/04/09 16:07:54;;;;;;;;;;;;;;;5.33;100.00;99695.53;5206626;27;19932;-87
2024/04/09 16:10:19;;;;;;;;;;;;;;;5.33;100.00;99700.78;5190899;27;19952;-87
2024/04/09 16:12:44;;;;;;;;;;;;;;;5.34;100.00;99701.66;5179178;27;19963;-86
2024/04/09 16:15:09;;;;;;;;;;;;;;;5.32;100.00;99713.97;5179417;27;20080;-86
2024/04/09 16:17:35;;;;;;;;;;;;;;;5.26;100.00;99726.34;5178469;27;19932;-86
2024/04/09 16:20:01;;;;;;;;;;;;;;;5.27;100.00;99732.47;5192302;27;19936;-86
2024/04/09 16:22:26;;;;;;;;;;;;;;;5.24;100.00;99737.78;5206633;27;19932;-85
2024/04/09 16:24:52;;;;;;;;;;;;;;;5.36;100.00;99734.00;5206171;27;19952;-85
2024/04/09 16:27:18;;;;;;;;;;;;;;;5.25;100.00;99732.50;5205397;27;19936;-87
2024/04/09 16:29:44;;;;;;;;;;;;;;;5.23;100.00;99731.66;5206639;27;20083;-86
2024/04/09 16:32:10;;;;;;;;;;;;;;;5.27;100.00;99737.72;5206645;27;19984;-85
2024/04/09 16:34:35;;;;;;;;;;;;;;;5.24;100.00;99743.88;5205913;27;19944;-81
2024/04/09 16:37:01;;;;;;;;;;;;;;;5.18;100.00;99749.25;5191599;27;19932;-86
2024/04/09 16:39:26;;;;;;;;;;;;;;;5.11;100.00;99745.06;5260028;27;19930;-85
2024/04/09 16:41:51;;;;;;;;;;;;;;;5.13;100.00;99740.63;5309125;27;19938;-84
2024/04/09 16:44:17;;;;;;;;;;;;;;;5.09;100.00;99739.84;5279720;27;19935;-83
2024/04/09 16:46:42;;;;;;;;;;;;;;;5.17;100.00;99742.31;5280012;27;20029;-86
2024/04/09 16:49:08;;;;;;;;;;;;;;;5.18;100.00;99744.00;5279040;27;19937;-84
2024/04/09 16:51:33;;;;;;;;;;;;;;;5.18;100.00;99749.25;5309495;26;19930;-85
2024/04/09 16:53:58;;;;;;;;;;;;;;;5.16;100.00;99747.59;5279752;27;19934;-84
2024/04/09 16:56:23;;;;;;;;;;;;;;;5.20;100.00;99758.00;5308625;27;19930;-85
2024/04/09 16:58:48;;;;;;;;;;;;;;;5.24;100.00;99767.53;5308157;27;19942;-86
2024/04/09 17:01:14;;;;;;;;;;;;;;;5.19;100.00;99766.75;5309779;27;20273;-87
2024/04/09 17:03:39;;;;;;;;;;;;;;;5.17;100.00;99763.31;5309743;27;20000;-85
2024/04/09 17:06:05;;;;;;;;;;;;;;;5.09;100.00;99767.88;5309779;27;19937;-83
2024/04/09 17:08:31;;;;;;;;;;;;;;;5.12;100.00;99765.16;5278942;27;19930;-86
2024/04/09 17:11:02;;;;;;;;;;;;;;;5.21;100.00;99772.00;5308265;27;19931;-83
2024/04/09 17:13:28;;;;;;;;;;;;;;;5.21;100.00;99779.88;5309306;27;19931;-83
2024/04/09 17:15:54;;;;;;;;;;;;;;;5.20;100.00;99779.03;5308516;27;19931;-84
2024/04/09 17:18:19;;;;;;;;;;;;;;;5.13;100.00;99784.44;5279416;27;19931;-83
2024/04/09 17:20:45;;;;;;;;;;;;;;;5.18;100.00;99783.41;5310055;27;19935;-84
2024/04/09 17:23:10;;;;;;;;;;;;;;;5.08;100.00;99792.41;5279209;27;20325;-83
2024/04/09 17:25:36;;;;;;;;;;;;;;;5.14;100.00;99804.53;5308105;27;19990;-84
2024/04/09 17:28:04;;;;;;;;;;;;;;;5.13;100.00;99816.81;5279369;27;19930;-83
2024/04/09 17:30:30;;;;;;;;;;;;;;;5.12;100.00;99822.94;5309472;27;19931;-84
2024/04/09 17:32:55;;;;;;;;;;;;;;;5.14;100.00;99826.41;5309996;27;20278;-86
2024/04/09 17:35:21;;;;;;;;;;;;;;;5.06;100.00;99829.19;5312684;27;19942;-85
2024/04/09 17:37:47;;;;;;;;;;;;;;;5.04;100.00;99830.09;5312867;27;20301;-83
2024/04/09 17:40:12;;;;;;;;;;;;;;;5.07;100.00;99827.44;5311145;27;20000;-82
2024/04/09 17:42:37;;;;;;;;;;;;;;;5.03;100.00;99833.66;5312694;27;20333;-84
2024/04/09 17:45:03;;;;;;;;;;;;;;;5.01;100.00;99836.31;5312640;27;19942;-83
2024/04/09 17:47:28;;;;;;;;;;;;;;;5.00;100.00;99841.59;5312644;27;19931;-85
2024/04/09 17:49:53;;;;;;;;;;;;;;;5.06;100.00;99844.09;5312319;27;20448;-85
2024/04/09 17:52:19;;;;;;;;;;;;;;;5.09;100.00;99844.03;5312700;27;20258;-84
2024/04/09 17:54:44;;;;;;;;;;;;;;;5.05;100.00;99847.59;5312108;27;19937;-89
2024/04/09 17:57:09;;;;;;;;;;;;;;;5.01;100.00;99852.06;5310804;27;19935;-83
2024/04/09 17:59:35;;;;;;;;;;;;;;;5.06;100.00;99854.59;5312454;27;19931;-82
2024/04/09 18:02:01;;;;;;;;;;;;;;;4.98;100.00;99861.72;5282301;27;20000;-84
2024/04/09 18:04:26;;;;;;;;;;;;;;;5.01;100.00;99864.31;5280766;27;19962;-83
2024/04/09 18:06:51;;;;;;;;;;;;;;;5.05;100.00;99871.25;5312425;27;19930;-84
2024/04/09 18:09:17;;;;;;;;;;;;;;;4.97;100.00;99865.28;5310463;27;19970;-82
2024/04/09 18:11:46;;;;;;;;;;;;;;;5.00;100.00;99878.34;5310852;27;19937;-81
2024/04/09 18:14:11;;;;;;;;;;;;;;;5.06;100.00;99883.50;5311304;27;19930;-83
2024/04/09 18:16:36;;;;;;;;;;;;;;;5.05;100.00;99889.63;5312005;27;20005;-83
2024/04/09 18:19:02;;;;;;;;;;;;;;;5.08;100.00;99894.81;5312106;27;19931;-84
2024/04/09 18:21:31;;;;;;;;;;;;;;;5.03;100.00;99902.78;5281911;27;19937;-82
2024/04/09 18:23:57;;;;;;;;;;;;;;;5.01;100.00;99915.09;5312188;27;19942;-81
2024/04/09 18:26:23;;;;;;;;;;;;;;;5.06;100.00;99928.16;5280523;27;20408;-81
2024/04/09 18:28:49;;;;;;;;;;;;;;;5.03;100.00;99931.69;5312206;27;19930;-81
2024/04/09 18:31:14;;;;;;;;;;;;;;;5.18;100.00;99935.78;5312074;27;19962;-82
2024/04/09 18:33:40;;;;;;;;;;;;;;;5.23;100.00;99946.22;5310576;27;20270;-82
2024/04/09 18:36:06;;;;;;;;;;;;;;;5.05;100.00;99952.66;5311899;27;19937;-91
2024/04/09 18:38:32;;;;;;;;;;;;;;;5.20;100.00;99951.50;5311825;27;19931;-83
2024/04/09 18:41:04;;;;;;;;;;;;;;;5.11;100.00;99955.19;5310311;27;19931;-84
2024/04/09 18:43:30;;;;;;;;;;;;;;;5.06;100.00;99954.41;5311556;27;20263;-83
2024/04/09 18:45:55;;;;;;;;;;;;;;;5.04;100.00;99959.69;5311979;27;19982;-84
2024/04/09 18:48:20;;;;;;;;;;;;;;;5.00;100.00;99971.13;5311807;27;19938;-83
2024/04/09 18:50:46;;;;;;;;;;;;;;;5.02;100.00;99973.72;5311829;27;19938;-82
2024/04/09 18:53:11;;;;;;;;;;;;;;;4.95;100.00;99974.75;5311654;27;20378;-86
2024/04/09 18:55:38;;;;;;;;;;;;;;;5.00;100.00;99979.00;5310411;27;19981;-87
2024/04/09 18:58:04;;;;;;;;;;;;;;;5.01;100.00;99988.63;5311723;27;19938;-85
2024/04/09 19:00:29;;;;;;;;;;;;;;;5.05;100.00;99994.69;5311269;27;19930;-84
2024/04/09 19:02:54;;;;;;;;;;;;;;;5.00;100.00;99999.16;5311707;27;19930;-84
2024/04/09 19:05:19;;;;;;;;;;;;;;;5.05;100.00;99998.16;5311181;27;19931;-85
2024/04/09 19:07:45;;;;;;;;;;;;;;;4.99;100.00;100000.91;5311246;27;19937;-84
2024/04/09 19:10:10;;;;;;;;;;;;;;;4.98;100.00;100006.19;5309886;27;19939;-88
2024/04/09 19:12:36;;;;;;;;;;;;;;;4.89;100.00;100018.56;5281150;27;20547;-84
2024/04/09 19:15:03;;;;;;;;;;;;;;;4.93;100.00;100014.16;5311384;27;19931;-83
2024/04/09 19:17:28;;;;;;;;;;;;;;;4.98;100.00;100014.06;5311250;27;19931;-83
2024/04/09 19:19:54;;;;;;;;;;;;;;;4.95;100.00;100024.63;5311171;27;19931;-83
2024/04/09 19:22:19;;;;;;;;;;;;;;;4.87;100.00;100030.84;5280437;27;19931;-83
2024/04/09 19:24:44;;;;;;;;;;;;;;;4.89;100.00;100041.34;5311443;27;19938;-81
2024/04/09 19:27:09;;;;;;;;;;;;;;;4.90;100.00;100037.84;5309305;27;20008;-81
2024/04/09 19:29:34;;;;;;;;;;;;;;;4.92;100.00;100033.41;5311005;27;19938;-83
2024/04/09 19:32:03;;;;;;;;;;;;;;;4.90;100.00;100045.72;5310997;27;20365;-82
2024/04/09 19:34:28;;;;;;;;;;;;;;;4.87;100.00;100043.13;5311096;27;19942;-84
2024/04/09 19:36:54;;;;;;;;;;;;;;;4.84;100.00;100040.56;5309512;27;19941;-85
2024/04/09 19:39:20;;;;;;;;;;;;;;;4.74;100.00;100042.47;5310933;27;20317;-82
2024/04/09 19:41:45;;;;;;;;;;;;;;;4.84;100.00;100049.28;5309560;27;19930;-81
2024/04/09 19:44:10;;;;;;;;;;;;;;;4.85;100.00;100051.03;5310781;27;19930;-83
2024/04/09 19:46:36;;;;;;;;;;;;;;;4.79;100.00;100056.38;5311006;27;19930;-81
2024/04/09 19:49:01;;;;;;;;;;;;;;;4.82;100.00;100055.44;5310644;27;19935;-82
2024/04/09 19:51:26;;;;;;;;;;;;;;;4.84;100.00;100059.78;5310771;27;19937;-82
2024/04/09 19:53:52;;;;;;;;;;;;;;;4.80;100.00;100063.34;5310972;27;20358;-81
2024/04/09 19:56:17;;;;;;;;;;;;;;;4.73;100.00;100073.06;5278076;27;20362;-83
2024/04/09 19:58:42;;;;;;;;;;;;;;;4.76;100.00;100068.69;5310932;27;19938;-82
2024/04/09 20:01:07;;;;;;;;;;;;;;;4.76;100.00;100069.53;5280892;27;19937;-83
2024/04/09 20:03:32;;;;;;;;;;;;;;;4.78;100.00;100069.53;5280618;27;19963;-84
2024/04/09 20:05:58;;;;;;;;;;;;;;;4.77;100.00;100079.16;5310734;27;19930;-82
2024/04/09 20:08:23;;;;;;;;;;;;;;;4.79;100.00;100085.25;5310595;27;19938;-85
2024/04/09 20:11:00;;;;;;;;;;;;;;;4.77;100.00;100088.78;5309225;27;19931;-83
2024/04/09 20:13:25;;;;;;;;;;;;;;;4.76;100.00;100082.66;5280521;27;19934;-84